createdAt,value
2023-02-27T00:01:04.304Z,89.04
2023-02-27T00:03:31.821Z,89.35
2023-02-27T00:06:00.646Z,89.05
2023-02-27T00:08:28.449Z,89.08
2023-02-27T00:10:55.952Z,89.27
2023-02-27T00:13:23.460Z,88.87
2023-02-27T00:15:51.709Z,88.89
2023-02-27T00:18:19.265Z,89.14
2023-02-27T00:20:46.768Z,89.31
2023-02-27T00:23:16.322Z,89.62
2023-02-27T00:25:43.818Z,90.10
2023-02-27T00:28:11.343Z,88.50
2023-02-27T00:30:38.802Z,88.82
2023-02-27T00:33:06.307Z,89.37
2023-02-27T00:35:33.754Z,89.30
2023-02-27T00:38:01.313Z,89.71
2023-02-27T00:40:31.204Z,89.70
2023-02-27T00:42:58.892Z,90.24
2023-02-27T00:45:26.340Z,90.16
2023-02-27T00:47:53.821Z,90.11
2023-02-27T00:50:22.312Z,90.28
2023-02-27T00:52:49.829Z,90.25
2023-02-27T00:55:17.346Z,89.79
2023-02-27T00:57:46.215Z,88.94
2023-02-27T01:00:14.358Z,89.13
2023-02-27T01:02:41.923Z,90.07
2023-02-27T01:05:10.342Z,90.41
2023-02-27T01:07:38.141Z,90.35
2023-02-27T01:10:06.254Z,90.85
2023-02-27T01:12:33.736Z,90.85
2023-02-27T01:15:02.547Z,91.03
2023-02-27T01:17:30.086Z,91.18
2023-02-27T01:19:57.658Z,91.07
2023-02-27T01:22:25.424Z,91.13
2023-02-27T01:24:53.019Z,90.95
2023-02-27T01:27:20.605Z,91.15
2023-02-27T01:29:48.100Z,90.89
2023-02-27T01:32:17.125Z,91.27
2023-02-27T01:34:44.661Z,90.76
2023-02-27T01:37:12.138Z,90.88
2023-02-27T01:39:39.632Z,91.11
2023-02-27T01:42:07.809Z,91.09
2023-02-27T01:45:11.495Z,91.05
2023-02-27T01:47:41.922Z,91.05
2023-02-27T01:50:10.988Z,91.26
2023-02-27T01:52:40.752Z,91.33
2023-02-27T01:55:12.539Z,90.89
2023-02-27T01:57:40.554Z,90.12
2023-02-27T02:00:12.034Z,90.94
2023-02-27T02:02:43.811Z,90.64
2023-02-27T02:05:11.473Z,90.94
2023-02-27T02:07:39.564Z,90.66
2023-02-27T02:10:07.789Z,90.66
2023-02-27T02:12:37.086Z,90.54
2023-02-27T02:15:05.511Z,90.54
2023-02-27T02:17:40.160Z,90.68
2023-02-27T02:23:30.245Z,90.36
2023-02-27T02:26:33.537Z,89.89
2023-02-27T02:29:41.478Z,89.91
2023-02-27T02:32:39.605Z,89.02
2023-02-27T02:35:29.756Z,89.43
2023-02-27T02:38:26.428Z,88.87
2023-02-27T02:40:56.837Z,88.86
2023-02-27T02:43:28.793Z,89.01
2023-02-27T02:46:03.332Z,88.73
2023-02-27T02:48:33.998Z,88.41
2023-02-27T02:51:06.006Z,89.11
2023-02-27T02:53:38.830Z,88.83
2023-02-27T02:56:12.340Z,89.02
2023-02-27T02:58:46.961Z,89.03
2023-02-27T03:01:17.114Z,88.70
2023-02-27T03:03:46.458Z,88.72
2023-02-27T03:06:17.322Z,88.48
2023-02-27T03:08:48.062Z,88.82
2023-02-27T03:11:16.914Z,88.71
2023-02-27T03:13:48.059Z,88.00
2023-02-27T03:16:18.350Z,88.94
2023-02-27T03:18:52.195Z,88.30
2023-02-27T03:21:24.458Z,88.61
2023-02-27T03:23:54.377Z,89.10
2023-02-27T03:26:26.135Z,88.87
2023-02-27T03:28:57.156Z,89.01
2023-02-27T03:31:31.148Z,88.44
2023-02-27T03:34:02.993Z,88.41
2023-02-27T03:36:37.867Z,88.97
2023-02-27T03:39:09.486Z,88.78
2023-02-27T03:41:42.965Z,89.07
2023-02-27T03:44:13.322Z,89.04
2023-02-27T03:46:41.354Z,88.54
2023-02-27T03:49:09.125Z,88.86
2023-02-27T03:51:37.091Z,88.63
2023-02-27T03:54:07.864Z,89.08
2023-02-27T03:56:41.374Z,89.72
2023-02-27T03:59:08.988Z,89.66
2023-02-27T04:01:36.457Z,90.31
2023-02-27T04:04:06.462Z,89.91
2023-02-27T04:06:53.217Z,90.69
2023-02-27T04:09:27.926Z,90.15
2023-02-27T04:12:12.859Z,90.20
2023-02-27T04:14:47.685Z,90.19
2023-02-27T04:17:22.899Z,90.18
2023-02-27T04:20:14.597Z,89.62
2023-02-27T04:22:46.140Z,90.10
2023-02-27T04:25:37.586Z,89.87
2023-02-27T04:28:13.303Z,89.72
2023-02-27T04:30:46.727Z,89.93
2023-02-27T04:33:19.171Z,89.93
2023-02-27T04:35:50.330Z,89.93
2023-02-27T04:38:21.280Z,89.73
2023-02-27T04:40:51.558Z,90.05
2023-02-27T04:43:21.906Z,89.95
2023-02-27T04:45:50.686Z,89.36
2023-02-27T04:48:21.231Z,90.14
2023-02-27T04:50:52.211Z,90.74
2023-02-27T04:53:23.428Z,91.03
2023-02-27T04:55:53.108Z,91.26
2023-02-27T04:58:25.355Z,91.88
2023-02-27T05:00:56.320Z,91.40
2023-02-27T05:03:25.767Z,91.49
2023-02-27T05:05:55.957Z,91.75
2023-02-27T05:08:27.826Z,91.30
2023-02-27T05:10:59.776Z,91.07
2023-02-27T05:13:31.347Z,91.01
2023-02-27T05:16:02.333Z,90.89
2023-02-27T05:18:29.903Z,90.71
2023-02-27T05:21:04.510Z,90.40
2023-02-27T05:23:37.606Z,90.91
2023-02-27T05:26:15.060Z,91.04
2023-02-27T05:28:49.822Z,90.61
2023-02-27T05:31:24.213Z,90.02
2023-02-27T05:33:57.484Z,89.66
2023-02-27T05:36:25.738Z,90.10
2023-02-27T05:38:56.711Z,89.69
2023-02-27T05:41:27.546Z,88.88
2023-02-27T05:43:58.752Z,89.77
2023-02-27T05:46:29.331Z,89.71
2023-02-27T05:49:00.675Z,90.27
2023-02-27T05:51:30.369Z,90.92
2023-02-27T05:54:01.049Z,91.99
2023-02-27T05:56:29.657Z,92.01
2023-02-27T05:59:01.502Z,92.16
2023-02-27T06:01:28.994Z,92.00
2023-02-27T06:03:56.526Z,91.66
2023-02-27T06:06:24.111Z,91.15
2023-02-27T06:08:51.569Z,90.80
2023-02-27T06:11:19.056Z,91.07
2023-02-27T06:13:46.519Z,91.67
2023-02-27T06:16:16.133Z,91.81
2023-02-27T06:18:43.706Z,91.90
2023-02-27T06:21:11.181Z,92.34
2023-02-27T06:23:38.664Z,92.26
2023-02-27T06:26:06.401Z,92.16
2023-02-27T06:28:34.891Z,92.36
2023-02-27T06:31:03.004Z,92.42
2023-02-27T06:33:33.128Z,92.68
2023-02-27T06:36:00.785Z,91.87
2023-02-27T06:38:28.314Z,92.56
2023-02-27T06:40:55.978Z,92.34
2023-02-27T06:43:23.874Z,91.88
2023-02-27T06:45:54.707Z,92.28
2023-02-27T06:48:22.476Z,92.09
2023-02-27T06:50:53.814Z,91.87
2023-02-27T06:53:21.400Z,92.06
2023-02-27T06:55:49.326Z,92.22
2023-02-27T06:58:16.972Z,91.87
2023-02-27T07:00:44.578Z,91.19
2023-02-27T07:03:13.244Z,91.08
2023-02-27T07:05:41.420Z,90.00
2023-02-27T07:08:10.913Z,89.64
2023-02-27T07:10:38.902Z,88.91
2023-02-27T07:13:06.594Z,88.33
2023-02-27T07:15:34.143Z,88.65
2023-02-27T07:18:01.678Z,87.43
2023-02-27T07:20:29.173Z,86.94
2023-02-27T07:22:56.740Z,88.73
2023-02-27T07:25:25.572Z,88.49
2023-02-27T07:27:53.047Z,87.43
2023-02-27T07:30:20.682Z,87.52
2023-02-27T07:32:48.212Z,88.13
2023-02-27T07:35:15.708Z,88.40
2023-02-27T07:37:43.164Z,89.14
2023-02-27T07:40:11.786Z,89.49
2023-02-27T07:42:40.678Z,88.66
2023-02-27T07:45:09.757Z,87.00
2023-02-27T07:47:37.409Z,86.88
2023-02-27T07:50:05.397Z,88.05
2023-02-27T07:52:32.933Z,88.63
2023-02-27T07:55:00.490Z,89.60
2023-02-27T07:57:27.983Z,88.39
2023-02-27T07:59:56.786Z,86.79
2023-02-27T08:02:24.318Z,85.53
2023-02-27T08:04:52.706Z,86.17
2023-02-27T08:07:20.210Z,86.09
2023-02-27T08:09:47.660Z,85.14
2023-02-27T08:12:15.163Z,84.53
2023-02-27T08:14:42.662Z,83.69
2023-02-27T08:17:11.486Z,83.40
2023-02-27T08:19:39.350Z,84.25
2023-02-27T08:22:06.818Z,84.11
2023-02-27T08:24:34.297Z,86.18
2023-02-27T08:27:01.766Z,85.33
2023-02-27T08:29:30.906Z,84.37
2023-02-27T08:31:58.533Z,85.54
2023-02-27T08:34:27.512Z,85.67
2023-02-27T08:36:55.342Z,86.97
2023-02-27T08:39:24.097Z,85.72
2023-02-27T08:41:52.444Z,85.55
2023-02-27T08:44:20.145Z,86.23
2023-02-27T08:46:47.725Z,86.96
2023-02-27T08:49:15.538Z,87.09
2023-02-27T08:51:44.307Z,87.45
2023-02-27T08:54:11.826Z,85.86
2023-02-27T08:56:39.304Z,84.14
2023-02-27T08:59:06.827Z,86.26
2023-02-27T09:01:34.824Z,84.91
2023-02-27T09:04:03.465Z,85.42
2023-02-27T09:06:31.480Z,83.91
2023-02-27T09:09:00.695Z,85.21
2023-02-27T09:11:28.955Z,86.81
2023-02-27T09:13:57.440Z,84.16
2023-02-27T09:16:25.256Z,85.95
2023-02-27T09:18:52.920Z,85.54
2023-02-27T09:21:20.479Z,85.59
2023-02-27T09:23:47.964Z,85.63
2023-02-27T09:26:17.162Z,85.02
2023-02-27T09:28:44.778Z,83.07
2023-02-27T09:31:13.335Z,82.71
2023-02-27T09:33:40.913Z,83.26
2023-02-27T09:36:09.088Z,82.93
2023-02-27T09:38:38.525Z,81.06
2023-02-27T09:41:08.897Z,80.51
2023-02-27T09:43:41.162Z,81.53
2023-02-27T09:46:08.968Z,81.99
2023-02-27T09:48:40.630Z,82.47
2023-02-27T09:51:08.501Z,82.88
2023-02-27T09:53:39.458Z,81.38
2023-02-27T09:56:10.744Z,82.87
2023-02-27T09:58:45.191Z,81.96
2023-02-27T10:01:16.756Z,81.00
2023-02-27T10:03:56.180Z,79.67
2023-02-27T10:06:27.215Z,80.70
2023-02-27T10:09:10.177Z,79.32
2023-02-27T10:11:47.230Z,82.68
2023-02-27T10:14:26.630Z,83.20
2023-02-27T10:16:55.090Z,81.00
2023-02-27T10:19:27.407Z,79.29
2023-02-27T10:21:55.617Z,83.27
2023-02-27T10:24:27.624Z,82.22
2023-02-27T10:26:56.654Z,80.53
2023-02-27T10:29:30.173Z,78.78
2023-02-27T10:32:02.372Z,83.52
2023-02-27T10:34:31.748Z,80.60
2023-02-27T10:37:02.473Z,79.16
2023-02-27T10:39:30.894Z,79.11
2023-02-27T10:42:03.578Z,78.43
2023-02-27T10:44:33.306Z,73.87
2023-02-27T10:47:00.797Z,76.97
2023-02-27T10:49:32.356Z,79.46
2023-02-27T10:52:08.944Z,74.37
2023-02-27T10:54:37.192Z,73.54
2023-02-27T10:57:07.960Z,74.04
2023-02-27T10:59:40.105Z,75.42
2023-02-27T11:02:21.692Z,73.29
2023-02-27T11:04:53.745Z,74.60
2023-02-27T11:07:30.260Z,74.15
2023-02-27T11:10:16.719Z,73.49
2023-02-27T11:12:58.536Z,77.48
2023-02-27T11:15:31.456Z,78.53
2023-02-27T11:18:21.685Z,74.91
2023-02-27T11:20:50.864Z,71.43
2023-02-27T11:23:20.366Z,71.37
2023-02-27T11:25:48.112Z,69.93
2023-02-27T11:28:22.859Z,67.02
2023-02-27T11:31:00.225Z,75.09
2023-02-27T11:33:29.912Z,67.41
2023-02-27T11:35:58.713Z,68.09
2023-02-27T11:38:28.599Z,69.73
2023-02-27T11:40:57.803Z,69.60
2023-02-27T11:43:26.812Z,73.76
2023-02-27T11:46:05.196Z,66.97
2023-02-27T11:48:49.686Z,68.98
2023-02-27T11:51:25.243Z,68.63
2023-02-27T11:54:13.999Z,67.89
2023-02-27T11:56:44.555Z,67.99
2023-02-27T11:59:26.141Z,73.42
2023-02-27T12:02:00.766Z,72.77
2023-02-27T12:04:31.028Z,67.52
2023-02-27T12:07:02.557Z,67.17
2023-02-27T12:09:39.695Z,73.37
2023-02-27T12:12:15.515Z,66.04
2023-02-27T12:14:48.467Z,66.13
2023-02-27T12:17:22.637Z,67.74
2023-02-27T12:19:59.612Z,66.45
2023-02-27T12:22:30.232Z,66.39
2023-02-27T12:25:03.503Z,66.99
2023-02-27T12:27:37.747Z,67.04
2023-02-27T12:30:09.031Z,73.92
2023-02-27T12:32:41.896Z,66.19
2023-02-27T12:35:14.859Z,75.22
2023-02-27T12:37:42.368Z,65.18
2023-02-27T12:40:15.936Z,74.91
2023-02-27T12:43:10.883Z,65.67
2023-02-27T12:46:00.153Z,65.79
2023-02-27T12:48:37.806Z,72.50
2023-02-27T12:51:12.169Z,64.44
2023-02-27T12:54:05.964Z,64.82
2023-02-27T12:56:40.539Z,65.18
2023-02-27T12:59:14.269Z,71.95
2023-02-27T13:01:46.476Z,66.19
2023-02-27T13:04:20.465Z,65.06
2023-02-27T13:06:51.475Z,64.41
2023-02-27T13:09:29.127Z,64.41
2023-02-27T13:12:02.299Z,70.50
2023-02-27T13:14:35.697Z,65.36
2023-02-27T13:17:05.999Z,68.27
2023-02-27T13:19:37.832Z,64.46
2023-02-27T13:22:13.035Z,64.23
2023-02-27T13:24:45.103Z,64.01
2023-02-27T13:27:20.599Z,64.29
2023-02-27T13:29:55.424Z,66.37
2023-02-27T13:32:41.326Z,64.39
2023-02-27T13:35:22.019Z,71.48
2023-02-27T13:37:50.882Z,65.33
2023-02-27T13:40:42.366Z,63.34
2023-02-27T13:43:40.517Z,71.46
2023-02-27T13:46:23.575Z,72.26
2023-02-27T13:48:53.696Z,63.69
2023-02-27T13:51:46.565Z,72.28
2023-02-27T13:54:26.420Z,63.84
2023-02-27T13:57:18.313Z,72.42
2023-02-27T14:00:04.843Z,72.49
2023-02-27T14:02:59.204Z,65.22
2023-02-27T14:05:31.914Z,65.14
2023-02-27T14:08:06.637Z,64.33
2023-02-27T14:10:34.926Z,68.83
2023-02-27T14:13:04.490Z,65.18
2023-02-27T14:15:53.673Z,64.38
2023-02-27T14:18:58.079Z,66.75
2023-02-27T14:21:52.511Z,68.22
2023-02-27T14:24:24.492Z,71.54
2023-02-27T14:26:53.611Z,69.64
2023-02-27T14:29:23.948Z,63.19
2023-02-27T14:31:52.731Z,61.81
2023-02-27T14:34:22.516Z,61.73
2023-02-27T14:36:53.829Z,69.25
2023-02-27T14:39:26.905Z,61.50
2023-02-27T14:41:58.275Z,64.51
2023-02-27T14:44:27.857Z,65.41
2023-02-27T14:46:56.926Z,68.71
2023-02-27T14:49:26.598Z,70.02
2023-02-27T14:51:54.817Z,67.52
2023-02-27T14:54:25.040Z,70.69
2023-02-27T14:56:56.880Z,66.19
2023-02-27T14:59:25.232Z,67.97
2023-02-27T15:01:53.149Z,66.69
2023-02-27T15:04:21.795Z,65.87
2023-02-27T15:06:51.769Z,67.45
2023-02-27T15:09:24.617Z,66.38
2023-02-27T15:12:02.949Z,68.82
2023-02-27T15:14:33.336Z,65.69
2023-02-27T15:17:01.024Z,64.39
2023-02-27T15:19:30.430Z,64.12
2023-02-27T15:21:59.589Z,64.25
2023-02-27T15:24:35.279Z,64.57
2023-02-27T15:27:13.302Z,70.75
2023-02-27T15:29:42.911Z,64.33
2023-02-27T15:32:17.577Z,65.01
2023-02-27T15:34:45.568Z,66.13
2023-02-27T15:37:17.494Z,66.47
2023-02-27T15:39:47.084Z,72.01
2023-02-27T15:42:15.449Z,62.68
2023-02-27T15:44:45.175Z,64.19
2023-02-27T15:47:14.662Z,62.74
2023-02-27T15:49:43.110Z,64.39
2023-02-27T15:52:18.434Z,71.14
2023-02-27T15:54:52.205Z,63.13
2023-02-27T15:57:20.997Z,62.50
2023-02-27T15:59:48.664Z,69.16
2023-02-27T16:02:20.270Z,71.52
2023-02-27T16:04:48.188Z,72.41
2023-02-27T16:07:20.313Z,72.37
2023-02-27T16:09:52.016Z,72.71
2023-02-27T16:12:33.516Z,61.89
2023-02-27T16:15:25.262Z,62.58
2023-02-27T16:18:01.473Z,69.80
2023-02-27T16:20:41.552Z,72.08
2023-02-27T16:23:38.003Z,67.75
2023-02-27T16:26:20.774Z,65.68
2023-02-27T16:28:52.366Z,62.47
2023-02-27T16:31:25.985Z,71.23
2023-02-27T16:33:54.530Z,72.64
2023-02-27T16:36:24.073Z,64.58
2023-02-27T16:38:52.135Z,73.71
2023-02-27T16:41:23.128Z,67.24
2023-02-27T16:43:51.684Z,74.43
2023-02-27T16:46:21.036Z,73.79
2023-02-27T16:48:53.199Z,69.94
2023-02-27T16:51:26.796Z,71.34
2023-02-27T16:53:55.589Z,71.69
2023-02-27T16:56:37.248Z,71.00
2023-02-27T16:59:05.572Z,70.90
2023-02-27T17:01:34.582Z,74.64
2023-02-27T17:04:02.536Z,74.12
2023-02-27T17:06:30.759Z,74.19
2023-02-27T17:08:58.580Z,68.79
2023-02-27T17:11:27.404Z,70.12
2023-02-27T17:13:54.907Z,73.15
2023-02-27T17:16:22.449Z,74.87
2023-02-27T17:18:50.053Z,75.44
2023-02-27T17:21:17.533Z,74.79
2023-02-27T17:23:45.065Z,68.82
2023-02-27T17:26:12.581Z,72.32
2023-02-27T17:28:41.391Z,72.37
2023-02-27T17:31:09.219Z,73.27
2023-02-27T17:33:36.929Z,72.97
2023-02-27T17:36:05.008Z,73.94
2023-02-27T17:38:32.582Z,73.41
2023-02-27T17:41:00.222Z,73.04
2023-02-27T17:43:28.079Z,73.27
2023-02-27T17:45:57.778Z,73.64
2023-02-27T17:48:25.322Z,77.14
2023-02-27T17:50:52.999Z,71.75
2023-02-27T17:53:20.488Z,72.80
2023-02-27T17:55:48.218Z,76.98
2023-02-27T17:58:18.671Z,76.60
2023-02-27T18:00:46.344Z,75.18
2023-02-27T18:03:15.160Z,75.94
2023-02-27T18:05:49.000Z,72.72
2023-02-27T18:08:16.754Z,75.03
2023-02-27T18:10:47.639Z,77.19
2023-02-27T18:13:15.171Z,76.04
2023-02-27T18:15:42.866Z,75.72
2023-02-27T18:18:11.021Z,76.32
2023-02-27T18:20:40.399Z,73.56
2023-02-27T18:23:08.620Z,74.96
2023-02-27T18:25:36.523Z,78.42
2023-02-27T18:28:04.338Z,77.35
2023-02-27T18:30:33.435Z,77.21
2023-02-27T18:33:01.087Z,77.15
2023-02-27T18:35:28.709Z,76.84
2023-02-27T18:37:57.919Z,74.28
2023-02-27T18:40:26.468Z,76.28
2023-02-27T18:42:54.230Z,75.72
2023-02-27T18:45:22.361Z,75.15
2023-02-27T18:47:49.861Z,73.54
2023-02-27T18:50:18.370Z,76.01
2023-02-27T18:52:47.159Z,73.71
2023-02-27T18:55:17.457Z,75.81
2023-02-27T18:57:46.203Z,74.40
2023-02-27T19:00:14.489Z,70.45
2023-02-27T19:02:43.208Z,72.91
2023-02-27T19:05:11.964Z,73.98
2023-02-27T19:07:39.744Z,77.04
2023-02-27T19:10:08.692Z,77.34
2023-02-27T19:12:37.485Z,77.17
2023-02-27T19:15:05.566Z,78.85
2023-02-27T19:17:33.454Z,77.60
2023-02-27T19:20:01.305Z,76.91
2023-02-27T19:22:30.316Z,74.93
2023-02-27T19:24:57.829Z,77.81
2023-02-27T19:27:25.592Z,76.67
2023-02-27T19:29:54.408Z,76.69
2023-02-27T19:32:22.528Z,77.53
2023-02-27T19:34:50.180Z,77.59
2023-02-27T19:37:17.682Z,77.53
2023-02-27T19:39:46.643Z,75.77
2023-02-27T19:42:14.268Z,77.69
2023-02-27T19:44:42.219Z,78.45
2023-02-27T19:47:11.225Z,78.91
2023-02-27T19:49:38.761Z,81.08
2023-02-27T19:52:07.191Z,80.96
2023-02-27T19:54:36.082Z,80.36
2023-02-27T19:57:03.574Z,78.45
2023-02-27T19:59:31.223Z,80.21
2023-02-27T20:01:59.269Z,79.93
2023-02-27T20:04:28.436Z,78.78
2023-02-27T20:06:55.988Z,77.41
2023-02-27T20:09:24.152Z,79.07
2023-02-27T20:11:53.542Z,79.67
2023-02-27T20:14:21.051Z,81.71
2023-02-27T20:16:48.888Z,82.49
2023-02-27T20:19:19.025Z,83.16
2023-02-27T20:21:48.729Z,82.57
2023-02-27T20:24:18.108Z,82.33
2023-02-27T20:26:47.707Z,80.74
2023-02-27T20:29:16.591Z,80.94
2023-02-27T20:31:46.050Z,79.98
2023-02-27T20:34:15.714Z,82.20
2023-02-27T20:36:44.356Z,81.67
2023-02-27T20:39:13.572Z,80.75
2023-02-27T20:41:41.180Z,82.47
2023-02-27T20:44:11.345Z,82.98
2023-02-27T20:46:40.305Z,83.42
2023-02-27T20:49:08.022Z,83.29
2023-02-27T20:51:37.950Z,83.50
2023-02-27T20:54:08.892Z,84.12
2023-02-27T20:56:43.322Z,83.83
2023-02-27T20:59:13.939Z,83.89
2023-02-27T21:01:42.338Z,83.49
2023-02-27T21:04:12.352Z,82.87
2023-02-27T21:06:40.352Z,82.51
2023-02-27T21:09:07.904Z,82.83
2023-02-27T21:11:35.413Z,82.56
2023-02-27T21:14:06.999Z,82.58
2023-02-27T21:16:34.649Z,82.67
2023-02-27T21:19:02.148Z,82.62
2023-02-27T21:21:32.056Z,83.47
2023-02-27T21:24:00.765Z,83.19
2023-02-27T21:26:31.882Z,83.04
2023-02-27T21:29:02.183Z,81.86
2023-02-27T21:31:33.138Z,80.58
2023-02-27T21:34:02.219Z,80.25
2023-02-27T21:36:31.962Z,80.88
2023-02-27T21:39:00.352Z,82.21
2023-02-27T21:41:28.479Z,81.92
2023-02-27T21:43:58.880Z,81.06
2023-02-27T21:46:26.544Z,80.64
2023-02-27T21:48:55.791Z,82.56
2023-02-27T21:51:38.397Z,81.79
2023-02-27T21:54:06.748Z,82.19
2023-02-27T21:56:34.239Z,82.32
2023-02-27T21:59:02.610Z,83.13
2023-02-27T22:01:30.561Z,84.22
2023-02-27T22:03:59.574Z,83.76
2023-02-27T22:06:29.311Z,83.08
2023-02-27T22:08:57.831Z,82.88
2023-02-27T22:11:30.078Z,83.60
2023-02-27T22:13:58.125Z,84.24
2023-02-27T22:16:25.891Z,84.03
2023-02-27T22:18:53.376Z,84.86
2023-02-27T22:21:25.145Z,85.14
2023-02-27T22:23:53.071Z,85.33
2023-02-27T22:26:24.157Z,85.10
2023-02-27T22:28:52.041Z,83.95
2023-02-27T22:31:21.468Z,84.96
2023-02-27T22:33:50.967Z,84.74
2023-02-27T22:36:20.999Z,84.81
2023-02-27T22:38:50.354Z,83.48
2023-02-27T22:41:20.158Z,84.08
2023-02-27T22:43:47.884Z,83.50
2023-02-27T22:46:17.813Z,84.34
2023-02-27T22:48:45.454Z,83.81
2023-02-27T22:51:15.213Z,84.25
2023-02-27T22:53:45.948Z,84.04
2023-02-27T22:56:16.510Z,82.92
2023-02-27T22:58:45.664Z,82.21
2023-02-27T23:01:15.077Z,82.31
2023-02-27T23:03:43.113Z,83.41
2023-02-27T23:06:12.667Z,83.65
2023-02-27T23:08:42.131Z,83.45
2023-02-27T23:11:10.872Z,81.92
2023-02-27T23:13:39.830Z,81.02
2023-02-27T23:16:11.595Z,82.13
2023-02-27T23:18:39.481Z,81.55
2023-02-27T23:21:07.575Z,80.54
2023-02-27T23:23:35.070Z,82.60
2023-02-27T23:26:03.059Z,82.54
2023-02-27T23:28:31.191Z,83.02
2023-02-27T23:31:00.297Z,82.73
2023-02-27T23:33:28.017Z,83.02
2023-02-27T23:35:55.755Z,82.79
2023-02-27T23:38:23.274Z,83.18
2023-02-27T23:40:50.807Z,83.68
2023-02-27T23:43:36.128Z,84.29
2023-02-27T23:46:08.720Z,83.88
2023-02-27T23:48:36.394Z,83.38
2023-02-27T23:51:05.136Z,84.07
2023-02-27T23:53:33.212Z,83.21
2023-02-27T23:56:00.695Z,82.69
2023-02-27T23:58:28.239Z,82.38
